Fujiiwa Maru — JH3357 — position and weather

sailwx.info

Track history (hours):
 
Tides and Currents Weather Stations Pressure Air Temp Water Temp Dewpoint Dewpoint Depression Visibility Wind Speed Wind Dir Waves Ship Positions

Fujiiwa Maru

Last reported at 2017-Dec-11 16:58 UTC. Time now 2017-Dec-11 19:11 UTC.
Position N 41°47' E 140°44'.

Length 84 m; draft 5 m.

Type: Cargo ship. MMSI: 431200122.

Date/timePositionNaut miles runAvg speedWind from/ knotsBaromVisibWave heightAir tempDewpointWater temp
2017-Dec-11 16:58N 41°47' E 140°44'0 0.0
2017-Dec-11 16:28N 41°47' E 140°44'0 0.0
2017-Dec-11 15:55N 41°47' E 140°44'0 0.0
2017-Dec-11 15:25N 41°47' E 140°44'0 0.0
2017-Dec-11 14:58N 41°47' E 140°44'0 0.0
2017-Dec-11 14:28N 41°47' E 140°44'0 0.0
2017-Dec-11 13:58N 41°47' E 140°44'0 0.0
2017-Dec-11 13:28N 41°47' E 140°44'0 0.0
2017-Dec-11 12:58N 41°47' E 140°44'0 0.0
2017-Dec-11 12:22N 41°47' E 140°44'0 0.0
2017-Dec-11 11:58N 41°47' E 140°44'0 0.0
2017-Dec-11 11:28N 41°47' E 140°44'0 0.0
2017-Dec-11 10:55N 41°47' E 140°44'0 0.0
2017-Dec-11 10:25N 41°47' E 140°44'0 0.0
2017-Dec-11 09:58N 41°47' E 140°44'0 0.0
2017-Dec-11 09:28N 41°47' E 140°44'0 0.0
2017-Dec-11 08:55N 41°47' E 140°44'0 0.0
2017-Dec-11 08:28N 41°47' E 140°44'0 0.0
2017-Dec-11 07:58N 41°47' E 140°44'0 0.0
2017-Dec-11 07:28N 41°47' E 140°44'0 0.0
2017-Dec-11 06:43N 41°47' E 140°44'0 0.0
2017-Dec-11 06:28N 41°47' E 140°44'0 0.0
2017-Dec-11 05:58N 41°47' E 140°44'0 0.0
2017-Dec-11 05:28N 41°47' E 140°44'0 0.0
2017-Dec-11 04:58N 41°47' E 140°44'0 0.0
2017-Dec-11 04:28N 41°47' E 140°44'0 0.0
2017-Dec-11 03:58N 41°47' E 140°44'0 0.0
2017-Dec-11 03:28N 41°47' E 140°44'0 0.0
2017-Dec-11 02:58N 41°47' E 140°44'0 0.0
2017-Dec-11 02:28N 41°47' E 140°44'0 0.0
2017-Dec-11 01:58N 41°47' E 140°44'0 0.0
2017-Dec-11 01:28N 41°47' E 140°44'0 0.0
2017-Dec-11 00:58N 41°47' E 140°44'0 0.0
2017-Dec-11 00:28N 41°47' E 140°44'1 1.8
2017-Dec-11 00:00N 41°47' E 140°42'0 0.1
2017-Dec-10 23:30N 41°47' E 140°42'0 0.1
2017-Dec-10 23:00N 41°47' E 140°42'0 0.0
2017-Dec-10 22:30N 41°47' E 140°42'0 0.1
2017-Dec-10 22:00N 41°47' E 140°42'0 0.1
2017-Dec-10 21:30N 41°47' E 140°42'0 0.0
2017-Dec-10 21:00N 41°47' E 140°42'0 0.2
2017-Dec-10 20:30N 41°47' E 140°42'0 0.7
2017-Dec-10 20:00N 41°48' E 140°42'4 7.3
2017-Dec-10 19:30N 41°45' E 140°40'510.5
2017-Dec-10 19:00N 41°42' E 140°46'611.3
2017-Dec-10 18:30N 41°39' E 140°53'510.0
2017-Dec-10 18:00N 41°36' E 140°58'510.6
2017-Dec-10 17:30N 41°34' E 141°04'612.2
2017-Dec-10 17:00N 41°30' E 141°11'1411.9
2017-Dec-10 15:48N 41°27' E 141°30'2 0.1
2017-Dec-09 11:21N 41°25' E 141°31'712.9
2017-Dec-09 10:48N 41°32' E 141°27'412.9
2017-Dec-09 10:30N 41°35' E 141°25'1012.4
2017-Dec-09 09:39N 41°44' E 141°17'212.6
2017-Dec-09 09:30N 41°46' E 141°16'7 0.4
2017-Dec-08 16:45N 41°52' E 141°13'312.5
2017-Dec-08 16:30N 41°49' E 141°15'612.0
2017-Dec-08 15:59N 41°44' E 141°18'611.8
2017-Dec-08 15:30N 41°39' E 141°22'611.7
2017-Dec-08 15:00N 41°34' E 141°26'611.0
2017-Dec-08 14:30N 41°29' E 141°29'1 0.0
2017-Dec-07 09:21N 41°28' E 141°30'811.6
2017-Dec-07 08:39N 41°31' E 141°20'212.7
2017-Dec-07 08:30N 41°32' E 141°18'713.7
2017-Dec-07 08:00N 41°34' E 141°09'713.0
2017-Dec-07 07:30N 41°37' E 141°01'612.3
2017-Dec-07 07:01N 41°39' E 140°54'612.1
2017-Dec-07 06:30N 41°42' E 140°47'510.8
2017-Dec-07 06:00N 41°45' E 140°41'3 5.6
2017-Dec-07 05:25N 41°48' E 140°43'0 0.0
2017-Dec-07 04:58N 41°48' E 140°43'0 0.0
2017-Dec-07 04:19N 41°48' E 140°43'0 0.0
2017-Dec-07 03:55N 41°48' E 140°43'0 0.0
2017-Dec-07 03:28N 41°48' E 140°43'0 0.0
2017-Dec-07 02:52N 41°48' E 140°43'0 0.0
2017-Dec-07 02:28N 41°48' E 140°43'0 0.0
2017-Dec-07 01:58N 41°48' E 140°43'0 0.0
2017-Dec-07 01:28N 41°48' E 140°43'0 0.0
2017-Dec-07 00:55N 41°48' E 140°43'0 0.0
2017-Dec-07 00:28N 41°48' E 140°43'0 0.0
2017-Dec-06 23:55N 41°48' E 140°43'0 0.0
2017-Dec-06 23:28N 41°48' E 140°43'0 0.1
2017-Dec-06 22:58N 41°48' E 140°43'2 3.2
2017-Dec-06 22:27N 41°48' E 140°41'0 0.0
2017-Dec-06 21:57N 41°48' E 140°41'0 0.0
2017-Dec-06 21:30N 41°48' E 140°41'0 0.0
2017-Dec-06 21:00N 41°48' E 140°41'  
2017-Dec-04 10:23N 41°47' E 140°43'0 0.0
2017-Dec-04 09:59N 41°47' E 140°43'0 0.0
2017-Dec-04 09:29N 41°47' E 140°43'0 0.0
2017-Dec-04 08:59N 41°47' E 140°43'0 0.0
2017-Dec-04 08:29N 41°47' E 140°43'0 0.0
2017-Dec-04 07:59N 41°47' E 140°43'0 0.0
2017-Dec-04 07:29N 41°47' E 140°43'0 0.0
2017-Dec-04 06:59N 41°47' E 140°43'0 0.0
2017-Dec-04 06:23N 41°47' E 140°43'0 0.0
2017-Dec-04 05:59N 41°47' E 140°43'0 0.0
2017-Dec-04 05:29N 41°47' E 140°43'0 0.0
2017-Dec-04 04:59N 41°47' E 140°43'0 0.0
2017-Dec-04 04:29N 41°47' E 140°43'0 0.0
2017-Dec-04 03:59N 41°47' E 140°43'0 0.0
2017-Dec-04 03:29N 41°47' E 140°43'0 0.0
2017-Dec-04 02:59N 41°47' E 140°43'0 0.0
2017-Dec-04 02:29N 41°47' E 140°43'0 0.0
2017-Dec-04 01:59N 41°47' E 140°43'0 0.0
2017-Dec-04 01:29N 41°47' E 140°43'0 0.0
2017-Dec-04 00:59N 41°47' E 140°43'0 0.0
2017-Dec-04 00:29N 41°47' E 140°43'0 0.0
2017-Dec-03 23:59N 41°47' E 140°43'0 0.0
2017-Dec-03 23:23N 41°47' E 140°43'0 0.0
2017-Dec-03 22:59N 41°47' E 140°43'0 0.0
2017-Dec-03 22:29N 41°47' E 140°43'0 0.0
2017-Dec-03 21:59N 41°47' E 140°43'0 0.0
2017-Dec-03 21:29N 41°47' E 140°43'0 0.0
2017-Dec-03 20:59N 41°47' E 140°43'0 0.0
2017-Dec-03 20:29N 41°47' E 140°43'0 0.0
2017-Dec-03 19:59N 41°47' E 140°43'0 0.0
2017-Dec-03 19:23N 41°47' E 140°43'0 0.0
2017-Dec-03 18:59N 41°47' E 140°43'0 0.0
2017-Dec-03 18:29N 41°47' E 140°43'0 0.0
2017-Dec-03 17:59N 41°47' E 140°43'0 0.0
2017-Dec-03 17:29N 41°47' E 140°43'0 0.0
2017-Dec-03 16:59N 41°47' E 140°43'0 0.0
2017-Dec-03 16:29N 41°47' E 140°43'0 0.0
2017-Dec-03 15:53N 41°47' E 140°43'0 0.0
2017-Dec-03 15:29N 41°47' E 140°43'0 0.0
2017-Dec-03 14:59N 41°47' E 140°43'0 0.0
2017-Dec-03 14:29N 41°47' E 140°43'0 0.0
2017-Dec-03 13:59N 41°47' E 140°43'0 0.0
2017-Dec-03 13:29N 41°47' E 140°43'0 0.0
2017-Dec-03 12:59N 41°47' E 140°43'0 0.0
2017-Dec-03 12:29N 41°47' E 140°43'0 0.0
2017-Dec-03 11:59N 41°47' E 140°43'0 0.0
2017-Dec-03 11:29N 41°47' E 140°43'0 0.0
2017-Dec-03 10:59N 41°47' E 140°43'0 0.0
2017-Dec-03 10:29N 41°47' E 140°43'0 0.0
2017-Dec-03 09:59N 41°47' E 140°43'0 0.0
2017-Dec-03 09:26N 41°47' E 140°43'0 0.0
2017-Dec-03 08:59N 41°47' E 140°43'0 0.0
2017-Dec-03 08:23N 41°47' E 140°43'0 0.0
2017-Dec-03 07:59N 41°47' E 140°43'0 0.0
2017-Dec-03 07:26N 41°47' E 140°43'0 0.0
2017-Dec-03 06:59N 41°47' E 140°43'2 3.5
2017-Dec-03 06:30N 41°47' E 140°41'611.3
2017-Dec-03 06:00N 41°42' E 140°44'4 9.0
2017-Dec-03 05:30N 41°41' E 140°50'611.6
2017-Dec-03 05:00N 41°39' E 140°57'611.4
2017-Dec-03 04:30N 41°35' E 141°03'612.1
2017-Dec-03 04:00N 41°32' E 141°10'611.4
2017-Dec-03 03:30N 41°29' E 141°16'1010.6
2017-Dec-03 02:36N 41°28' E 141°29'312.8
2017-Dec-03 02:22N 41°25' E 141°32'  
Track history (hours):
 
Tides and Currents Weather Stations Pressure Air Temp Water Temp Dewpoint Dewpoint Depression Visibility Wind Speed Wind Dir Waves Ship Positions

Fujiiwa Maru

Last reported at 2017-Dec-11 16:58 UTC. Time now 2017-Dec-11 19:11 UTC.
Position N 41°47' E 140°44'.

Length 84 m; draft 5 m.

Type: Cargo ship. MMSI: 431200122.

Date/timePositionNaut miles runAvg speedWind from/ knotsBaromVisibWave heightAir tempDewpointWater temp
2017-Dec-11 16:58N 41°47' E 140°44'0 0.0
2017-Dec-11 16:28N 41°47' E 140°44'0 0.0
2017-Dec-11 15:55N 41°47' E 140°44'0 0.0
2017-Dec-11 15:25N 41°47' E 140°44'0 0.0
2017-Dec-11 14:58N 41°47' E 140°44'0 0.0
2017-Dec-11 14:28N 41°47' E 140°44'0 0.0
2017-Dec-11 13:58N 41°47' E 140°44'0 0.0
2017-Dec-11 13:28N 41°47' E 140°44'0 0.0
2017-Dec-11 12:58N 41°47' E 140°44'0 0.0
2017-Dec-11 12:22N 41°47' E 140°44'0 0.0
2017-Dec-11 11:58N 41°47' E 140°44'0 0.0
2017-Dec-11 11:28N 41°47' E 140°44'0 0.0
2017-Dec-11 10:55N 41°47' E 140°44'0 0.0
2017-Dec-11 10:25N 41°47' E 140°44'0 0.0
2017-Dec-11 09:58N 41°47' E 140°44'0 0.0
2017-Dec-11 09:28N 41°47' E 140°44'0 0.0
2017-Dec-11 08:55N 41°47' E 140°44'0 0.0
2017-Dec-11 08:28N 41°47' E 140°44'0 0.0
2017-Dec-11 07:58N 41°47' E 140°44'0 0.0
2017-Dec-11 07:28N 41°47' E 140°44'0 0.0
2017-Dec-11 06:43N 41°47' E 140°44'0 0.0
2017-Dec-11 06:28N 41°47' E 140°44'0 0.0
2017-Dec-11 05:58N 41°47' E 140°44'0 0.0
2017-Dec-11 05:28N 41°47' E 140°44'0 0.0
2017-Dec-11 04:58N 41°47' E 140°44'0 0.0
2017-Dec-11 04:28N 41°47' E 140°44'0 0.0
2017-Dec-11 03:58N 41°47' E 140°44'0 0.0
2017-Dec-11 03:28N 41°47' E 140°44'0 0.0
2017-Dec-11 02:58N 41°47' E 140°44'0 0.0
2017-Dec-11 02:28N 41°47' E 140°44'0 0.0
2017-Dec-11 01:58N 41°47' E 140°44'0 0.0
2017-Dec-11 01:28N 41°47' E 140°44'0 0.0
2017-Dec-11 00:58N 41°47' E 140°44'0 0.0
2017-Dec-11 00:28N 41°47' E 140°44'1 1.8
2017-Dec-11 00:00N 41°47' E 140°42'0 0.1
2017-Dec-10 23:30N 41°47' E 140°42'0 0.1
2017-Dec-10 23:00N 41°47' E 140°42'0 0.0
2017-Dec-10 22:30N 41°47' E 140°42'0 0.1
2017-Dec-10 22:00N 41°47' E 140°42'0 0.1
2017-Dec-10 21:30N 41°47' E 140°42'0 0.0
2017-Dec-10 21:00N 41°47' E 140°42'0 0.2
2017-Dec-10 20:30N 41°47' E 140°42'0 0.7
2017-Dec-10 20:00N 41°48' E 140°42'4 7.3
2017-Dec-10 19:30N 41°45' E 140°40'510.5
2017-Dec-10 19:00N 41°42' E 140°46'611.3
2017-Dec-10 18:30N 41°39' E 140°53'510.0
2017-Dec-10 18:00N 41°36' E 140°58'510.6
2017-Dec-10 17:30N 41°34' E 141°04'612.2
2017-Dec-10 17:00N 41°30' E 141°11'1411.9
2017-Dec-10 15:48N 41°27' E 141°30'2 0.1
2017-Dec-09 11:21N 41°25' E 141°31'712.9
2017-Dec-09 10:48N 41°32' E 141°27'412.9
2017-Dec-09 10:30N 41°35' E 141°25'1012.4
2017-Dec-09 09:39N 41°44' E 141°17'212.6
2017-Dec-09 09:30N 41°46' E 141°16'7 0.4
2017-Dec-08 16:45N 41°52' E 141°13'312.5
2017-Dec-08 16:30N 41°49' E 141°15'612.0
2017-Dec-08 15:59N 41°44' E 141°18'611.8
2017-Dec-08 15:30N 41°39' E 141°22'611.7
2017-Dec-08 15:00N 41°34' E 141°26'611.0
2017-Dec-08 14:30N 41°29' E 141°29'1 0.0
2017-Dec-07 09:21N 41°28' E 141°30'811.6
2017-Dec-07 08:39N 41°31' E 141°20'212.7
2017-Dec-07 08:30N 41°32' E 141°18'713.7
2017-Dec-07 08:00N 41°34' E 141°09'713.0
2017-Dec-07 07:30N 41°37' E 141°01'612.3
2017-Dec-07 07:01N 41°39' E 140°54'612.1
2017-Dec-07 06:30N 41°42' E 140°47'510.8
2017-Dec-07 06:00N 41°45' E 140°41'3 5.6
2017-Dec-07 05:25N 41°48' E 140°43'0 0.0
2017-Dec-07 04:58N 41°48' E 140°43'0 0.0
2017-Dec-07 04:19N 41°48' E 140°43'0 0.0
2017-Dec-07 03:55N 41°48' E 140°43'0 0.0
2017-Dec-07 03:28N 41°48' E 140°43'0 0.0
2017-Dec-07 02:52N 41°48' E 140°43'0 0.0
2017-Dec-07 02:28N 41°48' E 140°43'0 0.0
2017-Dec-07 01:58N 41°48' E 140°43'0 0.0
2017-Dec-07 01:28N 41°48' E 140°43'0 0.0
2017-Dec-07 00:55N 41°48' E 140°43'0 0.0
2017-Dec-07 00:28N 41°48' E 140°43'0 0.0
2017-Dec-06 23:55N 41°48' E 140°43'0 0.0
2017-Dec-06 23:28N 41°48' E 140°43'0 0.1
2017-Dec-06 22:58N 41°48' E 140°43'2 3.2
2017-Dec-06 22:27N 41°48' E 140°41'0 0.0
2017-Dec-06 21:57N 41°48' E 140°41'0 0.0
2017-Dec-06 21:30N 41°48' E 140°41'0 0.0
2017-Dec-06 21:00N 41°48' E 140°41'  
2017-Dec-04 10:23N 41°47' E 140°43'0 0.0
2017-Dec-04 09:59N 41°47' E 140°43'0 0.0
2017-Dec-04 09:29N 41°47' E 140°43'0 0.0
2017-Dec-04 08:59N 41°47' E 140°43'0 0.0
2017-Dec-04 08:29N 41°47' E 140°43'0 0.0
2017-Dec-04 07:59N 41°47' E 140°43'0 0.0
2017-Dec-04 07:29N 41°47' E 140°43'0 0.0
2017-Dec-04 06:59N 41°47' E 140°43'0 0.0
2017-Dec-04 06:23N 41°47' E 140°43'0 0.0
2017-Dec-04 05:59N 41°47' E 140°43'0 0.0
2017-Dec-04 05:29N 41°47' E 140°43'0 0.0
2017-Dec-04 04:59N 41°47' E 140°43'0 0.0
2017-Dec-04 04:29N 41°47' E 140°43'0 0.0
2017-Dec-04 03:59N 41°47' E 140°43'0 0.0
2017-Dec-04 03:29N 41°47' E 140°43'0 0.0
2017-Dec-04 02:59N 41°47' E 140°43'0 0.0
2017-Dec-04 02:29N 41°47' E 140°43'0 0.0
2017-Dec-04 01:59N 41°47' E 140°43'0 0.0
2017-Dec-04 01:29N 41°47' E 140°43'0 0.0
2017-Dec-04 00:59N 41°47' E 140°43'0 0.0
2017-Dec-04 00:29N 41°47' E 140°43'0 0.0
2017-Dec-03 23:59N 41°47' E 140°43'0 0.0
2017-Dec-03 23:23N 41°47' E 140°43'0 0.0
2017-Dec-03 22:59N 41°47' E 140°43'0 0.0
2017-Dec-03 22:29N 41°47' E 140°43'0 0.0
2017-Dec-03 21:59N 41°47' E 140°43'0 0.0
2017-Dec-03 21:29N 41°47' E 140°43'0 0.0
2017-Dec-03 20:59N 41°47' E 140°43'0 0.0
2017-Dec-03 20:29N 41°47' E 140°43'0 0.0
2017-Dec-03 19:59N 41°47' E 140°43'0 0.0
2017-Dec-03 19:23N 41°47' E 140°43'0 0.0
2017-Dec-03 18:59N 41°47' E 140°43'0 0.0
2017-Dec-03 18:29N 41°47' E 140°43'0 0.0
2017-Dec-03 17:59N 41°47' E 140°43'0 0.0
2017-Dec-03 17:29N 41°47' E 140°43'0 0.0
2017-Dec-03 16:59N 41°47' E 140°43'0 0.0
2017-Dec-03 16:29N 41°47' E 140°43'0 0.0
2017-Dec-03 15:53N 41°47' E 140°43'0 0.0
2017-Dec-03 15:29N 41°47' E 140°43'0 0.0
2017-Dec-03 14:59N 41°47' E 140°43'0 0.0
2017-Dec-03 14:29N 41°47' E 140°43'0 0.0
2017-Dec-03 13:59N 41°47' E 140°43'0 0.0
2017-Dec-03 13:29N 41°47' E 140°43'0 0.0
2017-Dec-03 12:59N 41°47' E 140°43'0 0.0
2017-Dec-03 12:29N 41°47' E 140°43'0 0.0
2017-Dec-03 11:59N 41°47' E 140°43'0 0.0
2017-Dec-03 11:29N 41°47' E 140°43'0 0.0
2017-Dec-03 10:59N 41°47' E 140°43'0 0.0
2017-Dec-03 10:29N 41°47' E 140°43'0 0.0
2017-Dec-03 09:59N 41°47' E 140°43'0 0.0
2017-Dec-03 09:26N 41°47' E 140°43'0 0.0
2017-Dec-03 08:59N 41°47' E 140°43'0 0.0
2017-Dec-03 08:23N 41°47' E 140°43'0 0.0
2017-Dec-03 07:59N 41°47' E 140°43'0 0.0
2017-Dec-03 07:26N 41°47' E 140°43'0 0.0
2017-Dec-03 06:59N 41°47' E 140°43'2 3.5
2017-Dec-03 06:30N 41°47' E 140°41'611.3
2017-Dec-03 06:00N 41°42' E 140°44'4 9.0
2017-Dec-03 05:30N 41°41' E 140°50'611.6
2017-Dec-03 05:00N 41°39' E 140°57'611.4
2017-Dec-03 04:30N 41°35' E 141°03'612.1
2017-Dec-03 04:00N 41°32' E 141°10'611.4
2017-Dec-03 03:30N 41°29' E 141°16'1010.6
2017-Dec-03 02:36N 41°28' E 141°29'312.8
2017-Dec-03 02:22N 41°25' E 141°32'  

Dump ship's entire track history